UAL403 KAPA-KPUB
Flight info
| Callsign | UAL403 |
|---|---|
| Flight time | 0h 27m |
| Altitude | 15000 |
| Route | KAPA DCT KPUB |
| Aircraft | A320/M-SDFGHIRW/S |
Departure
| Time | 2026-04-29 06:41 |
|---|---|
| Airport | Centennial Airport (KAPA) |
Arrival
| Time | 2026-04-29 07:08 |
|---|---|
| Airport | Pueblo Memorial Airport (KPUB) |
| Time | Latitude | Longitude | Altitude | Speed | Heading |
|---|---|---|---|---|---|
| 2026-04-29 05:35 | 39.85936 | -104.68002 | 5388 ft | 0 kts | 180° |
| 2026-04-29 06:29 | 39.85935 | -104.68002 | 5383 ft | 0 kts | 180° |
| 2026-04-29 06:29 | 39.85939 | -104.68002 | 5388 ft | 2 kts | 180° |
| 2026-04-29 06:29 | 39.85956 | -104.68002 | 5384 ft | 2 kts | 180° |
| 2026-04-29 06:29 | 39.85974 | -104.68002 | 5384 ft | 3 kts | 180° |
| 2026-04-29 06:30 | 39.85989 | -104.68006 | 5383 ft | 2 kts | 125° |
| 2026-04-29 06:30 | 39.85991 | -104.68008 | 5383 ft | 0 kts | 118° |
| 2026-04-29 06:31 | 39.85990 | -104.68005 | 5383 ft | 2 kts | 114° |
| 2026-04-29 06:31 | 39.85990 | -104.67961 | 5386 ft | 7 kts | 68° |
| 2026-04-29 06:31 | 39.86006 | -104.67878 | 5384 ft | 11 kts | 84° |
| 2026-04-29 06:32 | 39.86017 | -104.67764 | 5382 ft | 14 kts | 82° |
| 2026-04-29 06:32 | 39.86033 | -104.67626 | 5381 ft | 16 kts | 86° |
| 2026-04-29 06:32 | 39.86037 | -104.67469 | 5377 ft | 18 kts | 88° |
| 2026-04-29 06:32 | 39.86028 | -104.67308 | 5378 ft | 18 kts | 121° |
| 2026-04-29 06:33 | 39.85947 | -104.67263 | 5383 ft | 0 kts | 176° |
| 2026-04-29 06:33 | 39.85948 | -104.67264 | 5383 ft | 0 kts | 176° |
| 2026-04-29 06:33 | 39.85951 | -104.67264 | 5383 ft | 0 kts | 176° |
| 2026-04-29 06:34 | 39.85953 | -104.67264 | 5383 ft | 2 kts | 176° |
| 2026-04-29 06:34 | 39.85974 | -104.67266 | 5382 ft | 3 kts | 176° |
| 2026-04-29 06:34 | 39.85989 | -104.67267 | 5378 ft | 1 kts | 176° |
| 2026-04-29 06:34 | 39.85997 | -104.67268 | 5382 ft | 0 kts | 176° |
| 2026-04-29 06:35 | 39.85977 | -104.67221 | 5382 ft | 17 kts | 88° |
| 2026-04-29 06:35 | 39.86008 | -104.66999 | 5379 ft | 29 kts | 85° |
| 2026-04-29 06:35 | 39.86022 | -104.66712 | 5387 ft | 28 kts | 92° |
| 2026-04-29 06:35 | 39.86023 | -104.66670 | 5388 ft | 0 kts | 87° |
| 2026-04-29 06:36 | 39.86031 | -104.66652 | 5389 ft | 6 kts | 42° |
| 2026-04-29 06:36 | 39.86100 | -104.66600 | 5388 ft | 14 kts | 21° |
| 2026-04-29 06:36 | 39.86106 | -104.66596 | 5388 ft | 0 kts | 21° |
| 2026-04-29 06:37 | 39.86109 | -104.66591 | 5388 ft | 2 kts | 52° |
| 2026-04-29 06:37 | 39.86109 | -104.66537 | 5390 ft | 9 kts | 96° |
| 2026-04-29 06:38 | 39.86106 | -104.66433 | 5395 ft | 12 kts | 91° |
| 2026-04-29 06:38 | 39.86105 | -104.66291 | 5399 ft | 20 kts | 88° |
| 2026-04-29 06:38 | 39.86105 | -104.66220 | 5399 ft | 0 kts | 90° |
| 2026-04-29 06:38 | 39.86105 | -104.66176 | 5399 ft | 11 kts | 89° |
| 2026-04-29 06:39 | 39.86100 | -104.66062 | 5399 ft | 8 kts | 104° |
| 2026-04-29 06:39 | 39.86031 | -104.66016 | 5395 ft | 10 kts | 187° |
| 2026-04-29 06:39 | 39.86027 | -104.66017 | 5395 ft | 0 kts | 187° |
| 2026-04-29 06:39 | 39.86020 | -104.66018 | 5396 ft | 11 kts | 186° |
| 2026-04-29 06:40 | 39.85623 | -104.66021 | 5392 ft | 102 kts | 179° |
| 2026-04-29 06:40 | 39.84598 | -104.66035 | 5390 ft | 186 kts | 179° |
| 2026-04-29 06:40 | 39.83185 | -104.66077 | 5836 ft | 217 kts | 180° |
| 2026-04-29 06:40 | 39.81544 | -104.66107 | 6438 ft | 257 kts | 179° |
| 2026-04-29 06:41 | 39.79698 | -104.66157 | 7444 ft | 273 kts | 179° |
| 2026-04-29 06:41 | 39.77826 | -104.66214 | 9126 ft | 265 kts | 180° |
| 2026-04-29 06:41 | 39.76246 | -104.66229 | 10490 ft | 258 kts | 180° |
| 2026-04-29 06:41 | 39.74482 | -104.66183 | 11883 ft | 247 kts | 180° |
| 2026-04-29 06:42 | 39.72806 | -104.66079 | 13316 ft | 235 kts | 180° |
| 2026-04-29 06:42 | 39.71225 | -104.65950 | 14605 ft | 220 kts | 189° |
| 2026-04-29 06:42 | 39.69852 | -104.66107 | 15586 ft | 212 kts | 193° |
| 2026-04-29 06:42 | 39.68522 | -104.66307 | 16392 ft | 211 kts | 194° |
| 2026-04-29 06:43 | 39.67329 | -104.66506 | 17070 ft | 213 kts | 195° |
| 2026-04-29 06:43 | 39.65837 | -104.66764 | 17781 ft | 223 kts | 196° |
| 2026-04-29 06:43 | 39.64224 | -104.67054 | 18197 ft | 247 kts | 195° |
| 2026-04-29 06:43 | 39.62438 | -104.67371 | 18579 ft | 271 kts | 195° |
| 2026-04-29 06:44 | 39.60486 | -104.67714 | 18987 ft | 292 kts | 195° |
| 2026-04-29 06:44 | 39.58431 | -104.68063 | 19566 ft | 304 kts | 195° |
| 2026-04-29 06:44 | 39.56320 | -104.68415 | 19914 ft | 306 kts | 195° |
| 2026-04-29 06:44 | 39.54199 | -104.68765 | 19987 ft | 307 kts | 195° |
| 2026-04-29 06:45 | 39.52075 | -104.69118 | 19982 ft | 308 kts | 195° |
| 2026-04-29 06:45 | 39.49968 | -104.69470 | 19983 ft | 308 kts | 195° |
| 2026-04-29 06:45 | 39.47818 | -104.69831 | 19977 ft | 308 kts | 195° |
| 2026-04-29 06:45 | 39.45716 | -104.70184 | 19971 ft | 308 kts | 195° |
| 2026-04-29 06:46 | 39.43566 | -104.70544 | 19965 ft | 308 kts | 195° |
| 2026-04-29 06:46 | 39.41458 | -104.70896 | 19957 ft | 308 kts | 195° |
| 2026-04-29 06:46 | 39.39331 | -104.71252 | 19948 ft | 308 kts | 195° |
| 2026-04-29 06:46 | 39.37210 | -104.71608 | 19866 ft | 308 kts | 195° |
| 2026-04-29 06:47 | 39.35081 | -104.71965 | 19872 ft | 308 kts | 195° |
| 2026-04-29 06:47 | 39.32961 | -104.72321 | 19869 ft | 308 kts | 195° |
| 2026-04-29 06:47 | 39.30826 | -104.72679 | 19864 ft | 308 kts | 194° |
| 2026-04-29 06:47 | 39.28708 | -104.73034 | 19887 ft | 307 kts | 194° |
| 2026-04-29 06:48 | 39.26590 | -104.73389 | 19902 ft | 306 kts | 194° |
| 2026-04-29 06:48 | 39.24472 | -104.73744 | 19913 ft | 306 kts | 194° |
| 2026-04-29 06:48 | 39.22363 | -104.74097 | 19924 ft | 306 kts | 194° |
| 2026-04-29 06:48 | 39.20248 | -104.74451 | 19935 ft | 306 kts | 194° |
| 2026-04-29 06:49 | 39.18131 | -104.74805 | 19945 ft | 306 kts | 194° |
| 2026-04-29 06:49 | 39.16023 | -104.75158 | 19956 ft | 306 kts | 194° |
| 2026-04-29 06:49 | 39.13907 | -104.75511 | 19967 ft | 306 kts | 194° |
| 2026-04-29 06:49 | 39.11790 | -104.75865 | 19979 ft | 306 kts | 194° |
| 2026-04-29 06:50 | 39.09702 | -104.76214 | 19990 ft | 306 kts | 194° |
| 2026-04-29 06:50 | 39.07587 | -104.76567 | 19989 ft | 306 kts | 194° |
| 2026-04-29 06:50 | 39.05468 | -104.76920 | 20009 ft | 307 kts | 193° |
| 2026-04-29 06:50 | 39.03349 | -104.77273 | 20011 ft | 307 kts | 193° |
| 2026-04-29 06:51 | 39.01230 | -104.77625 | 20011 ft | 307 kts | 194° |
| 2026-04-29 06:51 | 38.99118 | -104.77977 | 20009 ft | 307 kts | 194° |
| 2026-04-29 06:51 | 38.97000 | -104.78329 | 20009 ft | 307 kts | 193° |
| 2026-04-29 06:51 | 38.94893 | -104.78679 | 19856 ft | 305 kts | 193° |
| 2026-04-29 06:52 | 38.92810 | -104.79022 | 19645 ft | 297 kts | 194° |
| 2026-04-29 06:52 | 38.90796 | -104.79352 | 19485 ft | 286 kts | 194° |
| 2026-04-29 06:52 | 38.88848 | -104.79674 | 19269 ft | 280 kts | 194° |
| 2026-04-29 06:52 | 38.86896 | -104.80004 | 18644 ft | 289 kts | 194° |
| 2026-04-29 06:53 | 38.84869 | -104.80349 | 17711 ft | 298 kts | 193° |
| 2026-04-29 06:53 | 38.82780 | -104.80701 | 16625 ft | 309 kts | 192° |
| 2026-04-29 06:53 | 38.80616 | -104.81062 | 15511 ft | 318 kts | 191° |
| 2026-04-29 06:53 | 38.78389 | -104.81430 | 14350 ft | 327 kts | 190° |
| 2026-04-29 06:54 | 38.76104 | -104.81806 | 12999 ft | 335 kts | 189° |
| 2026-04-29 06:54 | 38.73756 | -104.82193 | 11481 ft | 345 kts | 188° |
| 2026-04-29 06:54 | 38.71339 | -104.82590 | 9884 ft | 356 kts | 187° |
| 2026-04-29 06:54 | 38.68846 | -104.82999 | 8416 ft | 361 kts | 186° |
| 2026-04-29 06:55 | 38.66437 | -104.83396 | 7766 ft | 335 kts | 186° |
| 2026-04-29 06:55 | 38.64236 | -104.83760 | 7697 ft | 301 kts | 186° |
| 2026-04-29 06:55 | 38.62277 | -104.84084 | 7810 ft | 267 kts | 186° |
| 2026-04-29 06:55 | 38.60543 | -104.84371 | 7823 ft | 242 kts | 185° |
| 2026-04-29 06:56 | 38.58915 | -104.84640 | 7738 ft | 224 kts | 185° |
| 2026-04-29 06:56 | 38.57436 | -104.84885 | 7591 ft | 207 kts | 185° |
| 2026-04-29 06:56 | 38.56051 | -104.85112 | 7318 ft | 200 kts | 184° |
| 2026-04-29 06:56 | 38.54682 | -104.85335 | 7239 ft | 192 kts | 184° |
| 2026-04-29 06:57 | 38.53365 | -104.85549 | 7231 ft | 190 kts | 184° |
| 2026-04-29 06:57 | 38.52076 | -104.85758 | 7236 ft | 189 kts | 184° |
| 2026-04-29 06:57 | 38.50774 | -104.85971 | 7234 ft | 188 kts | 184° |
| 2026-04-29 06:57 | 38.49479 | -104.86182 | 7237 ft | 188 kts | 184° |
| 2026-04-29 06:58 | 38.48175 | -104.86396 | 7249 ft | 191 kts | 184° |
| 2026-04-29 06:58 | 38.46830 | -104.86615 | 7248 ft | 197 kts | 184° |
| 2026-04-29 06:58 | 38.45460 | -104.86838 | 7246 ft | 199 kts | 184° |
| 2026-04-29 06:58 | 38.44086 | -104.87063 | 7242 ft | 200 kts | 184° |
| 2026-04-29 06:59 | 38.42706 | -104.87288 | 7246 ft | 200 kts | 184° |
| 2026-04-29 06:59 | 38.41324 | -104.87513 | 7248 ft | 200 kts | 184° |
| 2026-04-29 06:59 | 38.39942 | -104.87740 | 7249 ft | 200 kts | 184° |
| 2026-04-29 06:59 | 38.38565 | -104.87966 | 7254 ft | 198 kts | 184° |
| 2026-04-29 07:00 | 38.37208 | -104.88188 | 7251 ft | 195 kts | 184° |
| 2026-04-29 07:00 | 38.35860 | -104.88409 | 7255 ft | 195 kts | 183° |
| 2026-04-29 07:00 | 38.34512 | -104.88602 | 7251 ft | 194 kts | 179° |
| 2026-04-29 07:00 | 38.33184 | -104.88495 | 7254 ft | 191 kts | 165° |
| 2026-04-29 07:01 | 38.31966 | -104.87926 | 7256 ft | 189 kts | 149° |
| 2026-04-29 07:01 | 38.30899 | -104.86933 | 7265 ft | 188 kts | 138° |
| 2026-04-29 07:01 | 38.29945 | -104.85834 | 7265 ft | 187 kts | 136° |
| 2026-04-29 07:01 | 38.29018 | -104.84635 | 7270 ft | 188 kts | 129° |
| 2026-04-29 07:02 | 38.28358 | -104.83237 | 7280 ft | 188 kts | 115° |
| 2026-04-29 07:02 | 38.28053 | -104.81623 | 7286 ft | 190 kts | 96° |
| 2026-04-29 07:02 | 38.28038 | -104.79936 | 7297 ft | 190 kts | 91° |
| 2026-04-29 07:02 | 38.28081 | -104.78256 | 7303 ft | 190 kts | 90° |
| 2026-04-29 07:03 | 38.28124 | -104.76573 | 7310 ft | 190 kts | 90° |
| 2026-04-29 07:03 | 38.28164 | -104.74895 | 7318 ft | 190 kts | 91° |
| 2026-04-29 07:03 | 38.28200 | -104.73216 | 7326 ft | 189 kts | 91° |
| 2026-04-29 07:03 | 38.28236 | -104.71540 | 7335 ft | 189 kts | 91° |
| 2026-04-29 07:04 | 38.28261 | -104.70436 | 7336 ft | 188 kts | 91° |
| 2026-04-29 07:04 | 38.28298 | -104.68838 | 7344 ft | 172 kts | 90° |
| 2026-04-29 07:04 | 38.28333 | -104.67345 | 7273 ft | 167 kts | 90° |
| 2026-04-29 07:04 | 38.28367 | -104.65871 | 7059 ft | 166 kts | 91° |
| 2026-04-29 07:05 | 38.28401 | -104.64429 | 6860 ft | 157 kts | 91° |
| 2026-04-29 07:05 | 38.28433 | -104.63077 | 6648 ft | 151 kts | 91° |
| 2026-04-29 07:05 | 38.28463 | -104.61738 | 6450 ft | 152 kts | 91° |
| 2026-04-29 07:05 | 38.28495 | -104.60393 | 6245 ft | 152 kts | 90° |
| 2026-04-29 07:06 | 38.28526 | -104.59051 | 6036 ft | 151 kts | 89° |
| 2026-04-29 07:06 | 38.28557 | -104.57737 | 5832 ft | 145 kts | 90° |
| 2026-04-29 07:06 | 38.28586 | -104.56468 | 5658 ft | 143 kts | 89° |
| 2026-04-29 07:06 | 38.28616 | -104.55200 | 5455 ft | 143 kts | 86° |
| 2026-04-29 07:07 | 38.28645 | -104.53942 | 5241 ft | 143 kts | 85° |
| 2026-04-29 07:07 | 38.28675 | -104.52686 | 5022 ft | 143 kts | 86° |
| 2026-04-29 07:07 | 38.28703 | -104.51423 | 4787 ft | 143 kts | 85° |
| 2026-04-29 07:07 | 38.28726 | -104.50234 | 4688 ft | 128 kts | 85° |
| 2026-04-29 07:08 | 38.28760 | -104.49239 | 4674 ft | 97 kts | 87° |
| 2026-04-29 07:08 | 38.28779 | -104.48594 | 4668 ft | 38 kts | 92° |
| 2026-04-29 07:08 | 38.28779 | -104.48541 | 4667 ft | 0 kts | 97° |
| 2026-04-29 07:08 | 38.28779 | -104.48538 | 4667 ft | 4 kts | 98° |
| 2026-04-29 07:09 | 38.28773 | -104.48450 | 4666 ft | 14 kts | 91° |
| 2026-04-29 07:09 | 38.28775 | -104.48297 | 4663 ft | 21 kts | 89° |
| 2026-04-29 07:09 | 38.28779 | -104.48200 | 4662 ft | 5 kts | 83° |
| 2026-04-29 07:09 | 38.28782 | -104.48118 | 4660 ft | 13 kts | 101° |
| 2026-04-29 07:10 | 38.28699 | -104.48052 | 4659 ft | 19 kts | 176° |
| 2026-04-29 07:10 | 38.28626 | -104.48189 | 4658 ft | 24 kts | 259° |
| 2026-04-29 07:10 | 38.28594 | -104.48414 | 4663 ft | 28 kts | 259° |
| 2026-04-29 07:10 | 38.28562 | -104.48652 | 4666 ft | 24 kts | 262° |
| 2026-04-29 07:11 | 38.28474 | -104.48780 | 4667 ft | 7 kts | 188° |
| 2026-04-29 07:11 | 38.28473 | -104.48781 | 4667 ft | 0 kts | 188° |